Terminal Aerodrome Forecast
Issued by NWS

Home | Current Version | Previous Version | Text Only | Print | Product List | Glossary On
Versions: 1 2 3 4 5 6 7 8 9 10 11 12 13 14
000
FTUS45 KFGZ 302335
TAFSEZ
TAF
KSEZ 302335Z 3100/3124 18010G15KT P6SM SCT110
     FM310300 04005KT P6SM FEW110
     FM311600 VRB05KT P6SM SCT090 PROB30 3119/3124 VRB15G30KT -TSRA
      BKN110CB=

USA.gov is the U.S. government's official web portal to all federal, state and local government web resources and services.